sensor_id;sensor_type;location;lat;lon;timestamp;pressure;altitude;pressure_sealevel;temperature;humidity
15272;BME280;7737;51.578;7.268;2023-02-28T00:00:07;102586.53;;;-0.64;100.00
15272;BME280;7737;51.578;7.268;2023-02-28T00:02:35;102586.50;;;-0.65;100.00
15272;BME280;7737;51.578;7.268;2023-02-28T00:05:02;102584.44;;;-0.77;100.00
15272;BME280;7737;51.578;7.268;2023-02-28T00:07:29;102586.53;;;-0.64;100.00
15272;BME280;7737;51.578;7.268;2023-02-28T00:09:55;102591.00;;;-0.59;100.00
15272;BME280;7737;51.578;7.268;2023-02-28T00:12:22;102586.91;;;-0.50;100.00
15272;BME280;7737;51.578;7.268;2023-02-28T00:14:50;102594.69;;;-0.51;100.00
15272;BME280;7737;51.578;7.268;2023-02-28T00:17:16;102587.63;;;-0.55;100.00
15272;BME280;7737;51.578;7.268;2023-02-28T00:19:46;102596.06;;;-0.66;100.00
15272;BME280;7737;51.578;7.268;2023-02-28T00:22:12;102588.75;;;-0.79;100.00
15272;BME280;7737;51.578;7.268;2023-02-28T00:24:39;102594.06;;;-0.76;100.00
15272;BME280;7737;51.578;7.268;2023-02-28T00:27:05;102588.53;;;-0.88;100.00
15272;BME280;7737;51.578;7.268;2023-02-28T00:29:32;102594.59;;;-0.87;100.00
15272;BME280;7737;51.578;7.268;2023-02-28T00:31:59;102591.84;;;-0.93;100.00
15272;BME280;7737;51.578;7.268;2023-02-28T00:34:26;102599.28;;;-0.76;100.00
15272;BME280;7737;51.578;7.268;2023-02-28T00:36:52;102594.78;;;-0.81;100.00
15272;BME280;7737;51.578;7.268;2023-02-28T00:39:19;102595.41;;;-0.90;100.00
15272;BME280;7737;51.578;7.268;2023-02-28T00:41:46;102591.78;;;-0.95;100.00
15272;BME280;7737;51.578;7.268;2023-02-28T00:44:13;102588.53;;;-0.88;100.00
15272;BME280;7737;51.578;7.268;2023-02-28T00:46:39;102600.63;;;-0.90;100.00
15272;BME280;7737;51.578;7.268;2023-02-28T00:49:07;102594.16;;;-1.04;100.00
15272;BME280;7737;51.578;7.268;2023-02-28T00:51:33;102599.09;;;-1.14;100.00
15272;BME280;7737;51.578;7.268;2023-02-28T00:54:00;102595.25;;;-0.96;100.00
15272;BME280;7737;51.578;7.268;2023-02-28T00:56:26;102601.81;;;-1.10;100.00
15272;BME280;7737;51.578;7.268;2023-02-28T00:58:53;102607.34;;;-0.99;100.00
15272;BME280;7737;51.578;7.268;2023-02-28T01:01:19;102612.16;;;-1.13;100.00
15272;BME280;7737;51.578;7.268;2023-02-28T01:03:46;102611.97;;;-1.19;100.00
15272;BME280;7737;51.578;7.268;2023-02-28T01:06:13;102598.38;;;-1.09;100.00
15272;BME280;7737;51.578;7.268;2023-02-28T01:08:40;102605.25;;;-1.11;100.00
15272;BME280;7737;51.578;7.268;2023-02-28T01:11:08;102605.03;;;-1.18;100.00
15272;BME280;7737;51.578;7.268;2023-02-28T01:13:34;102603.09;;;-1.26;100.00
15272;BME280;7737;51.578;7.268;2023-02-28T01:16:01;102609.22;;;-1.25;100.00
15272;BME280;7737;51.578;7.268;2023-02-28T01:18:27;102609.16;;;-1.27;100.00
15272;BME280;7737;51.578;7.268;2023-02-28T01:20:54;102603.13;;;-1.24;100.00
15272;BME280;7737;51.578;7.268;2023-02-28T01:23:22;102595.16;;;-1.30;100.00
15272;BME280;7737;51.578;7.268;2023-02-28T01:25:49;102596.66;;;-1.38;100.00
15272;BME280;7737;51.578;7.268;2023-02-28T01:28:16;102600.75;;;-1.46;100.00
15272;BME280;7737;51.578;7.268;2023-02-28T01:30:42;102600.19;;;-1.36;100.00
15272;BME280;7737;51.578;7.268;2023-02-28T01:33:09;102604.19;;;-1.47;100.00
15272;BME280;7737;51.578;7.268;2023-02-28T01:35:35;102595.88;;;-1.64;100.00
15272;BME280;7737;51.578;7.268;2023-02-28T01:38:02;102594.25;;;-1.60;100.00
15272;BME280;7737;51.578;7.268;2023-02-28T01:40:30;102593.50;;;-1.56;100.00
15272;BME280;7737;51.578;7.268;2023-02-28T01:42:57;102593.69;;;-1.50;100.00
15272;BME280;7737;51.578;7.268;2023-02-28T01:45:25;102587.16;;;-1.36;100.00
15272;BME280;7737;51.578;7.268;2023-02-28T01:47:56;102591.13;;;-1.49;100.00
15272;BME280;7737;51.578;7.268;2023-02-28T01:50:27;102593.41;;;-1.59;100.00
15272;BME280;7737;51.578;7.268;2023-02-28T01:52:56;102588.59;;;-1.74;100.00
15272;BME280;7737;51.578;7.268;2023-02-28T01:55:24;102591.09;;;-1.78;100.00
15272;BME280;7737;51.578;7.268;2023-02-28T01:57:57;102595.41;;;-1.79;100.00
15272;BME280;7737;51.578;7.268;2023-02-28T02:00:25;102584.09;;;-1.79;100.00
15272;BME280;7737;51.578;7.268;2023-02-28T02:02:55;102585.06;;;-1.77;100.00
15272;BME280;7737;51.578;7.268;2023-02-28T02:05:25;102587.34;;;-1.87;100.00
15272;BME280;7737;51.578;7.268;2023-02-28T02:07:54;102576.44;;;-1.75;100.00
15272;BME280;7737;51.578;7.268;2023-02-28T02:10:25;102579.03;;;-1.75;100.00
15272;BME280;7737;51.578;7.268;2023-02-28T02:13:05;102573.84;;;-1.73;100.00
15272;BME280;7737;51.578;7.268;2023-02-28T02:15:39;102573.63;;;-1.81;100.00
15272;BME280;7737;51.578;7.268;2023-02-28T02:18:14;102579.78;;;-1.79;100.00
15272;BME280;7737;51.578;7.268;2023-02-28T02:20:56;102577.91;;;-1.83;100.00
15272;BME280;7737;51.578;7.268;2023-02-28T02:26:55;102578.63;;;-1.89;100.00
15272;BME280;7737;51.578;7.268;2023-02-28T02:29:42;102577.63;;;-1.92;100.00
15272;BME280;7737;51.578;7.268;2023-02-28T02:32:41;102575.38;;;-2.08;100.00
15272;BME280;7737;51.578;7.268;2023-02-28T02:35:14;102579.91;;;-2.03;100.00
15272;BME280;7737;51.578;7.268;2023-02-28T02:37:48;102580.47;;;-2.11;100.00
15272;BME280;7737;51.578;7.268;2023-02-28T02:40:18;102588.06;;;-2.19;100.00
15272;BME280;7737;51.578;7.268;2023-02-28T02:42:50;102589.63;;;-2.24;100.00
15272;BME280;7737;51.578;7.268;2023-02-28T02:45:24;102579.53;;;-2.15;100.00
15272;BME280;7737;51.578;7.268;2023-02-28T02:47:53;102580.00;;;-2.26;100.00
15272;BME280;7737;51.578;7.268;2023-02-28T02:50:27;102579.91;;;-2.29;100.00
15272;BME280;7737;51.578;7.268;2023-02-28T02:52:57;102584.53;;;-2.21;100.00
15272;BME280;7737;51.578;7.268;2023-02-28T02:55:25;102582.25;;;-2.37;100.00
15272;BME280;7737;51.578;7.268;2023-02-28T02:57:53;102587.91;;;-2.50;100.00
15272;BME280;7737;51.578;7.268;2023-02-28T03:00:26;102594.88;;;-2.49;100.00
15272;BME280;7737;51.578;7.268;2023-02-28T03:02:56;102587.16;;;-2.46;100.00
15272;BME280;7737;51.578;7.268;2023-02-28T03:05:26;102587.78;;;-2.53;100.00
15272;BME280;7737;51.578;7.268;2023-02-28T03:07:54;102590.59;;;-2.47;100.00
15272;BME280;7737;51.578;7.268;2023-02-28T03:10:31;102581.88;;;-2.49;100.00
15272;BME280;7737;51.578;7.268;2023-02-28T03:13:29;102579.88;;;-2.56;100.00
15272;BME280;7737;51.578;7.268;2023-02-28T03:16:19;102584.28;;;-2.54;100.00
15272;BME280;7737;51.578;7.268;2023-02-28T03:18:54;102581.22;;;-2.67;100.00
15272;BME280;7737;51.578;7.268;2023-02-28T03:21:32;102586.53;;;-2.64;100.00
15272;BME280;7737;51.578;7.268;2023-02-28T03:24:04;102578.00;;;-2.60;100.00
15272;BME280;7737;51.578;7.268;2023-02-28T03:26:34;102578.25;;;-2.78;100.00
15272;BME280;7737;51.578;7.268;2023-02-28T03:29:05;102585.56;;;-2.68;100.00
15272;BME280;7737;51.578;7.268;2023-02-28T03:31:39;102580.25;;;-2.71;100.00
15272;BME280;7737;51.578;7.268;2023-02-28T03:34:10;102581.34;;;-2.64;100.00
15272;BME280;7737;51.578;7.268;2023-02-28T03:36:43;102582.31;;;-2.61;100.00
15272;BME280;7737;51.578;7.268;2023-02-28T03:39:14;102579.69;;;-2.62;100.00
15272;BME280;7737;51.578;7.268;2023-02-28T03:41:44;102588.59;;;-2.54;100.00
15272;BME280;7737;51.578;7.268;2023-02-28T03:44:17;102578.47;;;-2.47;100.00
15272;BME280;7737;51.578;7.268;2023-02-28T03:46:48;102583.91;;;-2.66;100.00
15272;BME280;7737;51.578;7.268;2023-02-28T03:49:23;102595.44;;;-2.83;100.00
15272;BME280;7737;51.578;7.268;2023-02-28T03:51:53;102593.78;;;-2.81;100.00
15272;BME280;7737;51.578;7.268;2023-02-28T03:54:22;102592.91;;;-2.81;100.00
15272;BME280;7737;51.578;7.268;2023-02-28T03:56:54;102592.53;;;-2.67;100.00
15272;BME280;7737;51.578;7.268;2023-02-28T03:59:25;102589.44;;;-2.80;100.00
15272;BME280;7737;51.578;7.268;2023-02-28T04:01:53;102592.91;;;-2.81;100.00
15272;BME280;7737;51.578;7.268;2023-02-28T04:04:20;102592.25;;;-2.74;100.00
15272;BME280;7737;51.578;7.268;2023-02-28T04:06:49;102597.72;;;-2.92;100.00
15272;BME280;7737;51.578;7.268;2023-02-28T04:09:18;102595.31;;;-2.86;100.00
15272;BME280;7737;51.578;7.268;2023-02-28T04:11:46;102602.97;;;-2.90;100.00
15272;BME280;7737;51.578;7.268;2023-02-28T04:14:14;102602.31;;;-2.85;100.00
15272;BME280;7737;51.578;7.268;2023-02-28T04:16:41;102598.91;;;-3.08;100.00
15272;BME280;7737;51.578;7.268;2023-02-28T04:19:09;102601.25;;;-2.90;100.00
15272;BME280;7737;51.578;7.268;2023-02-28T04:21:39;102597.16;;;-2.83;100.00
15272;BME280;7737;51.578;7.268;2023-02-28T04:24:08;102593.81;;;-2.79;100.00
15272;BME280;7737;51.578;7.268;2023-02-28T04:26:41;102595.25;;;-2.64;100.00
15272;BME280;7737;51.578;7.268;2023-02-28T04:29:09;102600.13;;;-2.96;100.00
15272;BME280;7737;51.578;7.268;2023-02-28T04:31:36;102600.53;;;-2.86;100.00
15272;BME280;7737;51.578;7.268;2023-02-28T04:34:03;102598.22;;;-2.78;100.00
15272;BME280;7737;51.578;7.268;2023-02-28T04:36:30;102602.31;;;-2.85;100.00
15272;BME280;7737;51.578;7.268;2023-02-28T04:38:56;102600.63;;;-2.83;100.00
15272;BME280;7737;51.578;7.268;2023-02-28T04:41:23;102602.97;;;-2.90;100.00
15272;BME280;7737;51.578;7.268;2023-02-28T04:43:52;102611.72;;;-2.88;100.00
15272;BME280;7737;51.578;7.268;2023-02-28T04:46:19;102603.03;;;-2.89;100.00
15272;BME280;7737;51.578;7.268;2023-02-28T04:48:46;102610.84;;;-2.89;100.00
15272;BME280;7737;51.578;7.268;2023-02-28T04:51:14;102604.13;;;-2.82;100.00
15272;BME280;7737;51.578;7.268;2023-02-28T04:53:42;102602.19;;;-2.88;100.00
15272;BME280;7737;51.578;7.268;2023-02-28T04:56:11;102604.88;;;-2.86;100.00
15272;BME280;7737;51.578;7.268;2023-02-28T04:58:38;102595.69;;;-3.00;100.00
15272;BME280;7737;51.578;7.268;2023-02-28T05:01:14;102604.88;;;-3.10;100.00
15272;BME280;7737;51.578;7.268;2023-02-28T05:03:42;102608.34;;;-3.10;100.00
15272;BME280;7737;51.578;7.268;2023-02-28T05:06:08;102610.75;;;-3.16;100.00
15272;BME280;7737;51.578;7.268;2023-02-28T05:08:35;102602.44;;;-3.05;100.00
15272;BME280;7737;51.578;7.268;2023-02-28T05:11:02;102607.09;;;-2.97;100.00
15272;BME280;7737;51.578;7.268;2023-02-28T05:13:29;102610.47;;;-2.99;100.00
15272;BME280;7737;51.578;7.268;2023-02-28T05:15:56;102607.88;;;-2.99;100.00
15272;BME280;7737;51.578;7.268;2023-02-28T05:18:24;102611.28;;;-3.00;100.00
15272;BME280;7737;51.578;7.268;2023-02-28T05:20:50;102613.72;;;-3.05;100.00
15272;BME280;7737;51.578;7.268;2023-02-28T05:23:17;102616.06;;;-3.13;100.00
15272;BME280;7737;51.578;7.268;2023-02-28T05:25:46;102623.00;;;-3.12;100.00
15272;BME280;7737;51.578;7.268;2023-02-28T05:28:12;102625.22;;;-3.22;100.00
15272;BME280;7737;51.578;7.268;2023-02-28T05:30:39;102623.44;;;-3.47;100.00
15272;BME280;7737;51.578;7.268;2023-02-28T05:33:05;102619.47;;;-3.37;100.00
15272;BME280;7737;51.578;7.268;2023-02-28T05:35:33;102619.47;;;-3.37;100.00
15272;BME280;7737;51.578;7.268;2023-02-28T05:38:04;102616.09;;;-3.57;100.00
15272;BME280;7737;51.578;7.268;2023-02-28T05:40:30;102634.25;;;-3.58;100.00
15272;BME280;7737;51.578;7.268;2023-02-28T05:42:57;102631.28;;;-3.67;100.00
15272;BME280;7737;51.578;7.268;2023-02-28T05:45:23;102634.00;;;-3.42;100.00
15272;BME280;7737;51.578;7.268;2023-02-28T05:47:53;102634.66;;;-3.48;100.00
15272;BME280;7737;51.578;7.268;2023-02-28T05:50:20;102630.75;;;-3.37;100.00
15272;BME280;7737;51.578;7.268;2023-02-28T05:52:50;102632.75;;;-3.30;100.00
15272;BME280;7737;51.578;7.268;2023-02-28T05:55:16;102636.44;;;-3.47;100.00
15272;BME280;7737;51.578;7.268;2023-02-28T05:57:43;102637.00;;;-3.32;100.00
15272;BME280;7737;51.578;7.268;2023-02-28T06:00:11;102635.47;;;-3.49;100.00
15272;BME280;7737;51.578;7.268;2023-02-28T06:02:40;102640.84;;;-3.66;100.00
15272;BME280;7737;51.578;7.268;2023-02-28T06:05:09;102643.63;;;-3.62;100.00
15272;BME280;7737;51.578;7.268;2023-02-28T06:07:39;102645.94;;;-3.70;100.00
15272;BME280;7737;51.578;7.268;2023-02-28T06:10:08;102647.88;;;-3.42;100.00
15272;BME280;7737;51.578;7.268;2023-02-28T06:12:34;102645.84;;;-3.27;100.00
15272;BME280;7737;51.578;7.268;2023-02-28T06:15:01;102651.31;;;-3.43;100.00
15272;BME280;7737;51.578;7.268;2023-02-28T06:17:27;102646.06;;;-3.66;100.00
15272;BME280;7737;51.578;7.268;2023-02-28T06:19:54;102652.00;;;-3.69;100.00
15272;BME280;7737;51.578;7.268;2023-02-28T06:22:21;102647.72;;;-3.68;100.00
15272;BME280;7737;51.578;7.268;2023-02-28T06:24:48;102656.19;;;-3.73;100.00
15272;BME280;7737;51.578;7.268;2023-02-28T06:27:16;102657.94;;;-3.51;100.00
15272;BME280;7737;51.578;7.268;2023-02-28T06:29:42;102655.31;;;-3.29;100.00
15272;BME280;7737;51.578;7.268;2023-02-28T06:32:09;102659.69;;;-3.28;100.00
15272;BME280;7737;51.578;7.268;2023-02-28T06:34:35;102669.84;;;-3.56;100.00
15272;BME280;7737;51.578;7.268;2023-02-28T06:37:02;102659.84;;;-3.67;100.00
15272;BME280;7737;51.578;7.268;2023-02-28T06:39:28;102663.59;;;-3.61;100.00
15272;BME280;7737;51.578;7.268;2023-02-28T06:41:55;102659.34;;;-3.59;100.00
15272;BME280;7737;51.578;7.268;2023-02-28T06:44:23;102654.63;;;-3.47;100.00
15272;BME280;7737;51.578;7.268;2023-02-28T06:46:50;102659.25;;;-3.16;100.00
15272;BME280;7737;51.578;7.268;2023-02-28T06:49:17;102660.72;;;-3.23;100.00
15272;BME280;7737;51.578;7.268;2023-02-28T06:51:44;102664.44;;;-3.40;100.00
15272;BME280;7737;51.578;7.268;2023-02-28T06:54:12;102660.44;;;-3.30;100.00
15272;BME280;7737;51.578;7.268;2023-02-28T06:56:39;102664.19;;;-3.24;100.00
15272;BME280;7737;51.578;7.268;2023-02-28T06:59:05;102670.19;;;-3.25;100.00
15272;BME280;7737;51.578;7.268;2023-02-28T07:01:33;102664.47;;;-3.16;100.00
15272;BME280;7737;51.578;7.268;2023-02-28T07:04:01;102673.94;;;-2.94;100.00
15272;BME280;7737;51.578;7.268;2023-02-28T07:06:28;102668.94;;;-2.88;100.00
15272;BME280;7737;51.578;7.268;2023-02-28T07:08:54;102668.88;;;-3.14;100.00
15272;BME280;7737;51.578;7.268;2023-02-28T07:11:23;102672.16;;;-2.95;100.00
15272;BME280;7737;51.578;7.268;2023-02-28T07:13:50;102660.44;;;-2.84;100.00
15272;BME280;7737;51.578;7.268;2023-02-28T07:16:17;102668.56;;;-2.75;100.00
15272;BME280;7737;51.578;7.268;2023-02-28T07:18:45;102660.97;;;-2.69;100.00
15272;BME280;7737;51.578;7.268;2023-02-28T07:21:12;102666.19;;;-2.69;100.00
15272;BME280;7737;51.578;7.268;2023-02-28T07:23:39;102669.53;;;-2.48;100.00
15272;BME280;7737;51.578;7.268;2023-02-28T07:26:07;102670.91;;;-2.34;100.00
15272;BME280;7737;51.578;7.268;2023-02-28T07:28:38;102671.97;;;-2.27;100.00
15272;BME280;7737;51.578;7.268;2023-02-28T07:31:05;102675.44;;;-2.28;100.00
15272;BME280;7737;51.578;7.268;2023-02-28T07:33:32;102674.84;;;-1.95;100.00
15272;BME280;7737;51.578;7.268;2023-02-28T07:36:05;102678.13;;;-2.00;100.00
15272;BME280;7737;51.578;7.268;2023-02-28T07:38:33;102672.72;;;-1.79;100.00
15272;BME280;7737;51.578;7.268;2023-02-28T07:41:00;102674.63;;;-1.74;100.00
15272;BME280;7737;51.578;7.268;2023-02-28T07:43:29;102675.50;;;-1.47;100.00
15272;BME280;7737;51.578;7.268;2023-02-28T07:46:01;102669.84;;;-1.32;100.00
15272;BME280;7737;51.578;7.268;2023-02-28T07:48:27;102669.38;;;-1.19;100.00
15272;BME280;7737;51.578;7.268;2023-02-28T07:50:54;102667.00;;;-1.11;100.00
15272;BME280;7737;51.578;7.268;2023-02-28T07:53:22;102670.47;;;-1.11;100.00
15272;BME280;7737;51.578;7.268;2023-02-28T07:55:49;102669.47;;;-1.16;100.00
15272;BME280;7737;51.578;7.268;2023-02-28T07:58:16;102672.25;;;-1.11;100.00
15272;BME280;7737;51.578;7.268;2023-02-28T08:00:42;102675.94;;;-1.03;100.00
15272;BME280;7737;51.578;7.268;2023-02-28T08:03:11;102666.88;;;-0.85;100.00
15272;BME280;7737;51.578;7.268;2023-02-28T08:05:38;102669.34;;;-0.59;100.00
15272;BME280;7737;51.578;7.268;2023-02-28T08:08:05;102660.69;;;-0.58;100.00
15272;BME280;7737;51.578;7.268;2023-02-28T08:10:33;102672.50;;;-0.40;100.00
15272;BME280;7737;51.578;7.268;2023-02-28T08:13:00;102669.38;;;-0.27;100.00
15272;BME280;7737;51.578;7.268;2023-02-28T08:15:26;102655.91;;;-0.08;100.00
15272;BME280;7737;51.578;7.268;2023-02-28T08:17:53;102655.25;;;0.01;100.00
15272;BME280;7737;51.578;7.268;2023-02-28T08:20:21;102653.34;;;-0.06;100.00
15272;BME280;7737;51.578;7.268;2023-02-28T08:22:48;102655.31;;;0.03;100.00
15272;BME280;7737;51.578;7.268;2023-02-28T08:25:15;102639.25;;;0.23;100.00
15272;BME280;7737;51.578;7.268;2023-02-28T08:27:43;102636.13;;;0.39;100.00
15272;BME280;7737;51.578;7.268;2023-02-28T08:30:11;102635.56;;;0.52;100.00
15272;BME280;7737;51.578;7.268;2023-02-28T08:32:38;102632.31;;;0.64;100.00
15272;BME280;7737;51.578;7.268;2023-02-28T08:35:05;102626.31;;;0.68;100.00
15272;BME280;7737;51.578;7.268;2023-02-28T08:37:32;102625.56;;;0.74;100.00
15272;BME280;7737;51.578;7.268;2023-02-28T08:39:58;102615.41;;;0.89;100.00
15272;BME280;7737;51.578;7.268;2023-02-28T08:42:25;102611.97;;;0.93;100.00
15272;BME280;7737;51.578;7.268;2023-02-28T08:44:53;102610.88;;;1.25;100.00
15272;BME280;7737;51.578;7.268;2023-02-28T08:47:19;102600.03;;;1.05;100.00
15272;BME280;7737;51.578;7.268;2023-02-28T08:49:46;102586.66;;;1.37;100.00
15272;BME280;7737;51.578;7.268;2023-02-28T08:52:13;102592.03;;;1.46;100.00
15272;BME280;7737;51.578;7.268;2023-02-28T08:54:39;102584.03;;;1.37;100.00
15272;BME280;7737;51.578;7.268;2023-02-28T08:57:06;102575.00;;;1.70;100.00
15272;BME280;7737;51.578;7.268;2023-02-28T08:59:33;102577.66;;;1.73;100.00
15272;BME280;7737;51.578;7.268;2023-02-28T09:02:01;102569.75;;;1.70;100.00
15272;BME280;7737;51.578;7.268;2023-02-28T09:04:28;102573.38;;;1.77;100.00
15272;BME280;7737;51.578;7.268;2023-02-28T09:06:56;102561.34;;;1.91;100.00
15272;BME280;7737;51.578;7.268;2023-02-28T09:09:22;102554.63;;;2.08;100.00
15272;BME280;7737;51.578;7.268;2023-02-28T09:11:49;102554.13;;;2.35;100.00
15272;BME280;7737;51.578;7.268;2023-02-28T09:14:15;102548.09;;;2.42;100.00
15272;BME280;7737;51.578;7.268;2023-02-28T09:16:42;102534.13;;;2.43;100.00
15272;BME280;7737;51.578;7.268;2023-02-28T09:19:11;102503.63;;;2.54;100.00
15272;BME280;7737;51.578;7.268;2023-02-28T09:21:38;102496.78;;;2.67;100.00
15272;BME280;7737;51.578;7.268;2023-02-28T09:24:06;102486.38;;;2.77;100.00
15272;BME280;7737;51.578;7.268;2023-02-28T09:26:32;102486.34;;;2.74;100.00
15272;BME280;7737;51.578;7.268;2023-02-28T09:28:59;102481.19;;;2.83;100.00
15272;BME280;7737;51.578;7.268;2023-02-28T09:31:27;102473.16;;;2.68;100.00
15272;BME280;7737;51.578;7.268;2023-02-28T09:33:56;102466.50;;;3.03;100.00
15272;BME280;7737;51.578;7.268;2023-02-28T09:36:25;102465.63;;;3.01;100.00
15272;BME280;7737;51.578;7.268;2023-02-28T09:38:53;102457.66;;;2.92;100.00
15272;BME280;7737;51.578;7.268;2023-02-28T09:41:21;102464.72;;;2.99;100.00
15272;BME280;7737;51.578;7.268;2023-02-28T09:43:51;102455.38;;;3.32;100.00
15272;BME280;7737;51.578;7.268;2023-02-28T09:46:27;102461.56;;;3.40;100.00
15272;BME280;7737;51.578;7.268;2023-02-28T09:48:57;102453.47;;;3.14;100.00
15272;BME280;7737;51.578;7.268;2023-02-28T09:51:43;102443.03;;;3.20;100.00
15272;BME280;7737;51.578;7.268;2023-02-28T09:54:16;102436.84;;;3.17;100.00
15272;BME280;7737;51.578;7.268;2023-02-28T09:56:45;102421.25;;;3.38;100.00
15272;BME280;7737;51.578;7.268;2023-02-28T09:59:28;102421.19;;;3.32;100.00
15272;BME280;7737;51.578;7.268;2023-02-28T10:02:00;102419.59;;;3.49;100.00
15272;BME280;7737;51.578;7.268;2023-02-28T10:04:38;102419.47;;;3.37;100.00
15272;BME280;7737;51.578;7.268;2023-02-28T10:07:17;102407.31;;;3.48;100.00
15272;BME280;7737;51.578;7.268;2023-02-28T10:09:49;102409.22;;;3.73;100.00
15272;BME280;7737;51.578;7.268;2023-02-28T10:12:18;102389.97;;;3.85;100.00
15272;BME280;7737;51.578;7.268;2023-02-28T10:14:47;102387.22;;;3.60;99.81
15272;BME280;7737;51.578;7.268;2023-02-28T10:17:19;102374.13;;;3.74;98.89
15272;BME280;7737;51.578;7.268;2023-02-28T10:19:56;102363.75;;;4.04;99.25
15272;BME280;7737;51.578;7.268;2023-02-28T10:22:29;102375.16;;;4.06;99.14
15272;BME280;7737;51.578;7.268;2023-02-28T10:25:17;102369.03;;;4.04;98.08
15272;BME280;7737;51.578;7.268;2023-02-28T10:27:44;102347.06;;;3.92;96.74
15272;BME280;7737;51.578;7.268;2023-02-28T10:30:12;102339.16;;;3.93;94.53
15272;BME280;7737;51.578;7.268;2023-02-28T10:32:39;102334.78;;;3.98;93.09
15272;BME280;7737;51.578;7.268;2023-02-28T10:35:15;102326.09;;;4.32;93.50
15272;BME280;7737;51.578;7.268;2023-02-28T10:37:46;102340.19;;;4.51;94.33
15272;BME280;7737;51.578;7.268;2023-02-28T10:40:28;102332.22;;;4.27;91.81
15272;BME280;7737;51.578;7.268;2023-02-28T10:42:57;102309.34;;;4.00;89.03
15272;BME280;7737;51.578;7.268;2023-02-28T10:45:25;102301.53;;;4.27;89.51
15272;BME280;7737;51.578;7.268;2023-02-28T10:47:54;102327.81;;;4.11;88.03
15272;BME280;7737;51.578;7.268;2023-02-28T10:50:28;102327.00;;;4.53;89.05
15272;BME280;7737;51.578;7.268;2023-02-28T10:53:07;102305.94;;;4.41;86.05
15272;BME280;7737;51.578;7.268;2023-02-28T10:55:35;102311.22;;;4.68;88.23
15272;BME280;7737;51.578;7.268;2023-02-28T10:58:02;102311.22;;;4.83;87.84
15272;BME280;7737;51.578;7.268;2023-02-28T11:00:34;102302.44;;;4.42;85.82
15272;BME280;7737;51.578;7.268;2023-02-28T11:03:01;102306.81;;;4.67;86.53
15272;BME280;7737;51.578;7.268;2023-02-28T11:05:29;102306.84;;;4.79;87.37
15272;BME280;7737;51.578;7.268;2023-02-28T11:08:04;102293.66;;;4.49;84.39
15272;BME280;7737;51.578;7.268;2023-02-28T11:10:32;102300.69;;;4.89;84.04
15272;BME280;7737;51.578;7.268;2023-02-28T11:13:00;102287.50;;;4.93;82.78
15272;BME280;7737;51.578;7.268;2023-02-28T11:15:29;102291.91;;;4.39;82.54
15272;BME280;7737;51.578;7.268;2023-02-28T11:17:59;102294.53;;;4.75;83.89
15272;BME280;7737;51.578;7.268;2023-02-28T11:20:28;102301.56;;;4.74;82.50
15272;BME280;7737;51.578;7.268;2023-02-28T11:22:58;102298.91;;;4.53;82.47
15272;BME280;7737;51.578;7.268;2023-02-28T11:25:28;102295.41;;;4.33;81.64
15272;BME280;7737;51.578;7.268;2023-02-28T11:27:57;102282.25;;;4.56;81.33
15272;BME280;7737;51.578;7.268;2023-02-28T11:30:32;102284.88;;;4.92;80.98
15272;BME280;7737;51.578;7.268;2023-02-28T11:33:00;102279.63;;;4.47;80.47
15272;BME280;7737;51.578;7.268;2023-02-28T11:35:30;102281.38;;;4.78;80.92
15272;BME280;7737;51.578;7.268;2023-02-28T11:37:58;102286.66;;;4.70;80.52
15272;BME280;7737;51.578;7.268;2023-02-28T11:40:31;102300.69;;;4.71;81.54
15272;BME280;7737;51.578;7.268;2023-02-28T11:43:08;102288.38;;;4.61;81.45
15272;BME280;7737;51.578;7.268;2023-02-28T11:46:00;102291.91;;;4.31;81.05
15272;BME280;7737;51.578;7.268;2023-02-28T11:48:34;102291.88;;;4.48;81.34
15272;BME280;7737;51.578;7.268;2023-02-28T11:51:13;102273.47;;;4.64;80.75
15272;BME280;7737;51.578;7.268;2023-02-28T11:54:08;102277.84;;;4.27;80.15
15272;BME280;7737;51.578;7.268;2023-02-28T11:56:44;102285.75;;;4.83;80.99
15272;BME280;7737;51.578;7.268;2023-02-28T11:59:26;102265.53;;;5.08;80.59
15272;BME280;7737;51.578;7.268;2023-02-28T12:02:08;102271.53;;;5.46;81.71
15272;BME280;7737;51.578;7.268;2023-02-28T12:04:52;102268.16;;;5.07;80.91
15272;BME280;7737;51.578;7.268;2023-02-28T12:07:28;102273.38;;;5.29;82.02
15272;BME280;7737;51.578;7.268;2023-02-28T12:10:05;102262.78;;;5.32;81.91
15272;BME280;7737;51.578;7.268;2023-02-28T12:12:46;102262.75;;;5.49;81.99
15272;BME280;7737;51.578;7.268;2023-02-28T12:15:27;102246.94;;;5.44;81.77
15272;BME280;7737;51.578;7.268;2023-02-28T12:18:13;102244.31;;;5.38;80.63
15272;BME280;7737;51.578;7.268;2023-02-28T12:20:49;102248.75;;;5.27;82.09
15272;BME280;7737;51.578;7.268;2023-02-28T12:23:30;102252.25;;;5.34;82.06
15272;BME280;7737;51.578;7.268;2023-02-28T12:26:09;102248.56;;;5.74;82.27
15272;BME280;7737;51.578;7.268;2023-02-28T12:28:43;102237.00;;;5.99;82.27
15272;BME280;7737;51.578;7.268;2023-02-28T12:31:17;102226.53;;;5.86;80.41
15272;BME280;7737;51.578;7.268;2023-02-28T12:33:47;102205.47;;;5.77;79.14
15272;BME280;7737;51.578;7.268;2023-02-28T12:36:16;102214.00;;;6.18;81.11
15272;BME280;7737;51.578;7.268;2023-02-28T12:38:48;102228.28;;;5.84;80.70
15272;BME280;7737;51.578;7.268;2023-02-28T12:41:22;102213.34;;;5.81;80.78
15272;BME280;7737;51.578;7.268;2023-02-28T12:43:55;102206.28;;;5.92;79.69
15272;BME280;7737;51.578;7.268;2023-02-28T12:46:29;102205.19;;;6.22;80.04
15272;BME280;7737;51.578;7.268;2023-02-28T12:48:57;102200.75;;;6.27;80.85
15272;BME280;7737;51.578;7.268;2023-02-28T12:51:25;102198.28;;;6.03;79.97
15272;BME280;7737;51.578;7.268;2023-02-28T12:53:59;102210.41;;;6.25;81.04
15272;BME280;7737;51.578;7.268;2023-02-28T12:56:38;102197.25;;;6.21;80.66
15272;BME280;7737;51.578;7.268;2023-02-28T12:59:13;102205.06;;;6.37;81.29
15272;BME280;7737;51.578;7.268;2023-02-28T13:01:51;102206.91;;;6.26;81.20
15272;BME280;7737;51.578;7.268;2023-02-28T13:04:34;102196.34;;;6.23;80.41
15272;BME280;7737;51.578;7.268;2023-02-28T13:10:05;102208.47;;;6.48;82.71
15272;BME280;7737;51.578;7.268;2023-02-28T13:12:35;102206.50;;;6.71;84.01
15272;BME280;7737;51.578;7.268;2023-02-28T13:15:06;102199.81;;;6.31;81.72